sensor_id;sensor_type;location;lat;lon;timestamp;P1;durP1;ratioP1;P2;durP2;ratioP2
12232;SDS011;6179;51.748;8.728;2022-07-01T00:00:56;3.47;;;2.70;;
12232;SDS011;6179;51.748;8.728;2022-07-01T00:06:56;6.30;;;3.50;;
12232;SDS011;6179;51.748;8.728;2022-07-01T00:12:57;5.93;;;2.40;;
12232;SDS011;6179;51.748;8.728;2022-07-01T00:18:58;3.27;;;2.97;;
12232;SDS011;6179;51.748;8.728;2022-07-01T00:24:59;3.27;;;2.37;;
12232;SDS011;6179;51.748;8.728;2022-07-01T00:31:00;3.17;;;2.87;;
12232;SDS011;6179;51.748;8.728;2022-07-01T00:37:01;9.53;;;3.13;;
12232;SDS011;6179;51.748;8.728;2022-07-01T00:43:02;16.23;;;4.27;;
12232;SDS011;6179;51.748;8.728;2022-07-01T00:49:04;4.77;;;3.27;;
12232;SDS011;6179;51.748;8.728;2022-07-01T00:55:06;7.07;;;3.73;;
12232;SDS011;6179;51.748;8.728;2022-07-01T01:01:10;7.60;;;5.27;;
12232;SDS011;6179;51.748;8.728;2022-07-01T01:07:11;6.70;;;3.77;;
12232;SDS011;6179;51.748;8.728;2022-07-01T01:13:12;7.40;;;4.73;;
12232;SDS011;6179;51.748;8.728;2022-07-01T01:19:13;8.67;;;3.17;;
12232;SDS011;6179;51.748;8.728;2022-07-01T01:25:14;2.93;;;1.83;;
12232;SDS011;6179;51.748;8.728;2022-07-01T01:31:16;1.33;;;1.23;;
12232;SDS011;6179;51.748;8.728;2022-07-01T01:37:18;3.47;;;1.90;;
12232;SDS011;6179;51.748;8.728;2022-07-01T01:43:19;4.10;;;1.60;;
12232;SDS011;6179;51.748;8.728;2022-07-01T01:49:19;3.70;;;2.13;;
12232;SDS011;6179;51.748;8.728;2022-07-01T01:55:20;6.07;;;2.37;;
12232;SDS011;6179;51.748;8.728;2022-07-01T02:01:21;3.90;;;2.50;;
12232;SDS011;6179;51.748;8.728;2022-07-01T02:07:22;5.43;;;2.70;;
12232;SDS011;6179;51.748;8.728;2022-07-01T02:13:23;7.20;;;3.67;;
12232;SDS011;6179;51.748;8.728;2022-07-01T02:19:24;4.50;;;2.83;;
12232;SDS011;6179;51.748;8.728;2022-07-01T02:25:25;3.73;;;3.33;;
12232;SDS011;6179;51.748;8.728;2022-07-01T02:31:26;5.97;;;3.80;;
12232;SDS011;6179;51.748;8.728;2022-07-01T02:37:27;7.33;;;5.83;;
12232;SDS011;6179;51.748;8.728;2022-07-01T02:43:28;7.03;;;4.40;;
12232;SDS011;6179;51.748;8.728;2022-07-01T02:49:29;4.57;;;3.37;;
12232;SDS011;6179;51.748;8.728;2022-07-01T02:55:30;6.57;;;4.57;;
12232;SDS011;6179;51.748;8.728;2022-07-01T03:01:30;3.70;;;3.07;;
12232;SDS011;6179;51.748;8.728;2022-07-01T03:07:31;6.20;;;3.47;;
12232;SDS011;6179;51.748;8.728;2022-07-01T03:13:34;9.10;;;4.90;;
12232;SDS011;6179;51.748;8.728;2022-07-01T03:19:35;10.00;;;5.53;;
12232;SDS011;6179;51.748;8.728;2022-07-01T03:25:36;10.97;;;6.23;;
12232;SDS011;6179;51.748;8.728;2022-07-01T03:31:37;21.63;;;9.37;;
12232;SDS011;6179;51.748;8.728;2022-07-01T03:37:38;23.80;;;10.20;;
12232;SDS011;6179;51.748;8.728;2022-07-01T03:43:38;17.07;;;9.27;;
12232;SDS011;6179;51.748;8.728;2022-07-01T03:49:39;18.63;;;9.40;;
12232;SDS011;6179;51.748;8.728;2022-07-01T03:55:40;22.40;;;11.40;;
12232;SDS011;6179;51.748;8.728;2022-07-01T04:01:42;18.53;;;8.60;;
12232;SDS011;6179;51.748;8.728;2022-07-01T04:07:42;16.77;;;9.43;;
12232;SDS011;6179;51.748;8.728;2022-07-01T04:13:43;18.10;;;9.57;;
12232;SDS011;6179;51.748;8.728;2022-07-01T04:19:50;21.53;;;10.90;;
12232;SDS011;6179;51.748;8.728;2022-07-01T04:25:50;22.60;;;9.50;;
12232;SDS011;6179;51.748;8.728;2022-07-01T04:31:51;15.47;;;9.80;;
12232;SDS011;6179;51.748;8.728;2022-07-01T04:37:52;24.40;;;10.97;;
12232;SDS011;6179;51.748;8.728;2022-07-01T04:43:54;16.20;;;8.27;;
12232;SDS011;6179;51.748;8.728;2022-07-01T04:49:55;24.17;;;8.67;;
12232;SDS011;6179;51.748;8.728;2022-07-01T04:55:56;15.90;;;8.13;;
12232;SDS011;6179;51.748;8.728;2022-07-01T05:01:57;18.63;;;9.63;;
12232;SDS011;6179;51.748;8.728;2022-07-01T05:07:59;22.30;;;9.40;;
12232;SDS011;6179;51.748;8.728;2022-07-01T05:13:59;21.37;;;11.40;;
12232;SDS011;6179;51.748;8.728;2022-07-01T05:20:01;21.13;;;11.23;;
12232;SDS011;6179;51.748;8.728;2022-07-01T05:26:20;20.40;;;9.50;;
12232;SDS011;6179;51.748;8.728;2022-07-01T05:32:21;17.20;;;7.27;;
12232;SDS011;6179;51.748;8.728;2022-07-01T05:38:22;18.67;;;8.43;;
12232;SDS011;6179;51.748;8.728;2022-07-01T05:44:22;21.70;;;8.87;;
12232;SDS011;6179;51.748;8.728;2022-07-01T05:50:23;20.30;;;9.47;;
12232;SDS011;6179;51.748;8.728;2022-07-01T05:56:24;15.20;;;8.87;;
12232;SDS011;6179;51.748;8.728;2022-07-01T06:02:25;21.73;;;9.70;;
12232;SDS011;6179;51.748;8.728;2022-07-01T06:08:27;20.13;;;8.80;;
12232;SDS011;6179;51.748;8.728;2022-07-01T06:14:27;16.90;;;8.40;;
12232;SDS011;6179;51.748;8.728;2022-07-01T06:20:28;17.03;;;8.53;;
12232;SDS011;6179;51.748;8.728;2022-07-01T06:26:29;17.20;;;7.53;;
12232;SDS011;6179;51.748;8.728;2022-07-01T06:32:32;22.50;;;7.87;;
12232;SDS011;6179;51.748;8.728;2022-07-01T06:38:33;15.50;;;7.60;;
12232;SDS011;6179;51.748;8.728;2022-07-01T06:44:34;11.43;;;7.87;;
12232;SDS011;6179;51.748;8.728;2022-07-01T06:50:35;10.27;;;5.93;;
12232;SDS011;6179;51.748;8.728;2022-07-01T06:56:36;10.90;;;5.87;;
12232;SDS011;6179;51.748;8.728;2022-07-01T07:02:37;6.07;;;4.40;;
12232;SDS011;6179;51.748;8.728;2022-07-01T07:08:37;12.03;;;5.50;;
12232;SDS011;6179;51.748;8.728;2022-07-01T07:14:38;13.43;;;5.53;;
12232;SDS011;6179;51.748;8.728;2022-07-01T07:20:39;14.13;;;6.83;;
12232;SDS011;6179;51.748;8.728;2022-07-01T07:26:40;7.70;;;4.77;;
12232;SDS011;6179;51.748;8.728;2022-07-01T07:32:41;7.03;;;5.47;;
12232;SDS011;6179;51.748;8.728;2022-07-01T07:38:43;6.40;;;4.20;;
12232;SDS011;6179;51.748;8.728;2022-07-01T07:44:43;10.23;;;6.47;;
12232;SDS011;6179;51.748;8.728;2022-07-01T07:50:44;8.07;;;5.10;;
12232;SDS011;6179;51.748;8.728;2022-07-01T07:56:47;7.83;;;5.30;;
12232;SDS011;6179;51.748;8.728;2022-07-01T08:02:48;5.27;;;4.73;;
12232;SDS011;6179;51.748;8.728;2022-07-01T08:08:49;6.80;;;5.73;;
12232;SDS011;6179;51.748;8.728;2022-07-01T08:14:50;11.70;;;5.57;;
12232;SDS011;6179;51.748;8.728;2022-07-01T08:20:51;5.90;;;5.40;;
12232;SDS011;6179;51.748;8.728;2022-07-01T08:26:52;5.83;;;5.20;;
12232;SDS011;6179;51.748;8.728;2022-07-01T08:32:53;7.07;;;4.90;;
12232;SDS011;6179;51.748;8.728;2022-07-01T08:38:54;4.97;;;4.47;;
12232;SDS011;6179;51.748;8.728;2022-07-01T08:44:55;5.10;;;4.10;;
12232;SDS011;6179;51.748;8.728;2022-07-01T08:50:57;7.20;;;5.57;;
12232;SDS011;6179;51.748;8.728;2022-07-01T08:56:59;6.37;;;4.20;;
12232;SDS011;6179;51.748;8.728;2022-07-01T09:03:01;9.00;;;4.50;;
12232;SDS011;6179;51.748;8.728;2022-07-01T09:09:12;5.07;;;4.27;;
12232;SDS011;6179;51.748;8.728;2022-07-01T09:15:22;10.57;;;5.67;;
12232;SDS011;6179;51.748;8.728;2022-07-01T09:21:29;10.57;;;5.60;;
12232;SDS011;6179;51.748;8.728;2022-07-01T09:27:31;5.47;;;3.40;;
12232;SDS011;6179;51.748;8.728;2022-07-01T09:33:31;7.63;;;1.77;;
12232;SDS011;6179;51.748;8.728;2022-07-01T09:39:41;6.63;;;2.20;;
12232;SDS011;6179;51.748;8.728;2022-07-01T09:45:51;4.40;;;2.47;;
12232;SDS011;6179;51.748;8.728;2022-07-01T09:52:10;2.13;;;1.80;;
12232;SDS011;6179;51.748;8.728;2022-07-01T09:58:11;4.80;;;3.47;;
12232;SDS011;6179;51.748;8.728;2022-07-01T10:04:13;3.13;;;1.37;;
12232;SDS011;6179;51.748;8.728;2022-07-01T10:10:27;8.07;;;1.43;;
12232;SDS011;6179;51.748;8.728;2022-07-01T10:16:35;4.50;;;2.00;;
12232;SDS011;6179;51.748;8.728;2022-07-01T10:22:39;1.73;;;1.73;;
12232;SDS011;6179;51.748;8.728;2022-07-01T10:28:41;3.27;;;1.57;;
12232;SDS011;6179;51.748;8.728;2022-07-01T10:34:43;1.63;;;1.53;;
12232;SDS011;6179;51.748;8.728;2022-07-01T10:40:47;4.03;;;2.20;;
12232;SDS011;6179;51.748;8.728;2022-07-01T10:53:02;4.43;;;2.67;;
12232;SDS011;6179;51.748;8.728;2022-07-01T10:59:04;3.73;;;2.70;;
12232;SDS011;6179;51.748;8.728;2022-07-01T11:05:14;3.80;;;1.57;;
12232;SDS011;6179;51.748;8.728;2022-07-01T11:11:16;1.57;;;1.07;;
12232;SDS011;6179;51.748;8.728;2022-07-01T11:17:19;2.10;;;0.90;;
12232;SDS011;6179;51.748;8.728;2022-07-01T11:23:22;3.60;;;2.97;;
12232;SDS011;6179;51.748;8.728;2022-07-01T11:29:26;0.83;;;0.80;;
12232;SDS011;6179;51.748;8.728;2022-07-01T11:35:31;3.83;;;0.73;;
12232;SDS011;6179;51.748;8.728;2022-07-01T11:41:58;1.20;;;0.80;;
12232;SDS011;6179;51.748;8.728;2022-07-01T11:48:04;1.00;;;0.90;;
12232;SDS011;6179;51.748;8.728;2022-07-01T11:54:05;3.40;;;1.57;;
12232;SDS011;6179;51.748;8.728;2022-07-01T12:00:08;5.03;;;1.20;;
12232;SDS011;6179;51.748;8.728;2022-07-01T12:06:13;2.67;;;1.20;;
12232;SDS011;6179;51.748;8.728;2022-07-01T12:12:18;1.90;;;1.50;;
12232;SDS011;6179;51.748;8.728;2022-07-01T12:18:23;1.73;;;1.63;;
12232;SDS011;6179;51.748;8.728;2022-07-01T12:24:25;1.23;;;1.10;;
12232;SDS011;6179;51.748;8.728;2022-07-01T12:30:26;1.10;;;1.10;;
12232;SDS011;6179;51.748;8.728;2022-07-01T12:36:33;1.40;;;1.03;;
12232;SDS011;6179;51.748;8.728;2022-07-01T12:42:43;2.17;;;0.87;;
12232;SDS011;6179;51.748;8.728;2022-07-01T12:48:48;2.60;;;1.03;;
12232;SDS011;6179;51.748;8.728;2022-07-01T12:54:49;2.67;;;0.70;;
12232;SDS011;6179;51.748;8.728;2022-07-01T13:00:51;3.27;;;0.70;;
12232;SDS011;6179;51.748;8.728;2022-07-01T13:06:56;2.87;;;0.80;;
12232;SDS011;6179;51.748;8.728;2022-07-01T13:12:57;3.43;;;0.57;;
12232;SDS011;6179;51.748;8.728;2022-07-01T13:18:58;0.60;;;0.60;;
12232;SDS011;6179;51.748;8.728;2022-07-01T13:24:59;1.93;;;0.90;;
12232;SDS011;6179;51.748;8.728;2022-07-01T13:31:01;1.17;;;0.77;;
12232;SDS011;6179;51.748;8.728;2022-07-01T13:37:02;5.93;;;1.07;;
12232;SDS011;6179;51.748;8.728;2022-07-01T13:43:03;0.60;;;0.60;;
12232;SDS011;6179;51.748;8.728;2022-07-01T13:49:04;0.80;;;0.80;;
12232;SDS011;6179;51.748;8.728;2022-07-01T13:55:05;1.00;;;0.90;;
12232;SDS011;6179;51.748;8.728;2022-07-01T14:01:06;0.80;;;0.70;;
12232;SDS011;6179;51.748;8.728;2022-07-01T14:07:08;0.93;;;0.93;;
12232;SDS011;6179;51.748;8.728;2022-07-01T14:13:08;1.53;;;1.00;;
12232;SDS011;6179;51.748;8.728;2022-07-01T14:19:10;0.50;;;0.50;;
12232;SDS011;6179;51.748;8.728;2022-07-01T14:25:11;7.40;;;0.60;;
12232;SDS011;6179;51.748;8.728;2022-07-01T14:31:12;4.87;;;1.17;;
12232;SDS011;6179;51.748;8.728;2022-07-01T14:37:13;1.60;;;0.70;;
12232;SDS011;6179;51.748;8.728;2022-07-01T14:43:13;1.23;;;0.80;;
12232;SDS011;6179;51.748;8.728;2022-07-01T14:49:14;3.07;;;0.90;;
12232;SDS011;6179;51.748;8.728;2022-07-01T14:55:17;5.20;;;0.80;;
12232;SDS011;6179;51.748;8.728;2022-07-01T15:01:18;4.20;;;0.87;;
12232;SDS011;6179;51.748;8.728;2022-07-01T15:07:19;0.80;;;0.70;;
12232;SDS011;6179;51.748;8.728;2022-07-01T15:13:20;0.60;;;0.60;;
12232;SDS011;6179;51.748;8.728;2022-07-01T15:19:21;2.90;;;1.13;;
12232;SDS011;6179;51.748;8.728;2022-07-01T15:25:22;0.83;;;0.80;;
12232;SDS011;6179;51.748;8.728;2022-07-01T15:31:22;2.30;;;0.80;;
12232;SDS011;6179;51.748;8.728;2022-07-01T15:37:25;0.97;;;0.77;;
12232;SDS011;6179;51.748;8.728;2022-07-01T15:43:29;0.73;;;0.70;;
12232;SDS011;6179;51.748;8.728;2022-07-01T15:49:29;0.70;;;0.50;;
12232;SDS011;6179;51.748;8.728;2022-07-01T15:55:30;0.63;;;0.60;;
12232;SDS011;6179;51.748;8.728;2022-07-01T16:01:31;0.60;;;0.57;;
12232;SDS011;6179;51.748;8.728;2022-07-01T16:07:32;0.67;;;0.50;;
12232;SDS011;6179;51.748;8.728;2022-07-01T16:13:37;1.67;;;0.60;;
12232;SDS011;6179;51.748;8.728;2022-07-01T16:19:42;2.30;;;0.50;;
12232;SDS011;6179;51.748;8.728;2022-07-01T16:25:46;1.47;;;0.60;;
12232;SDS011;6179;51.748;8.728;2022-07-01T16:31:48;1.00;;;0.50;;
12232;SDS011;6179;51.748;8.728;2022-07-01T16:37:52;4.00;;;0.80;;
12232;SDS011;6179;51.748;8.728;2022-07-01T16:43:56;0.70;;;0.53;;
12232;SDS011;6179;51.748;8.728;2022-07-01T16:50:01;7.60;;;0.50;;
12232;SDS011;6179;51.748;8.728;2022-07-01T16:56:11;0.40;;;0.40;;
12232;SDS011;6179;51.748;8.728;2022-07-01T17:02:19;0.53;;;0.47;;
12232;SDS011;6179;51.748;8.728;2022-07-01T17:08:20;2.00;;;0.50;;
12232;SDS011;6179;51.748;8.728;2022-07-01T17:14:24;0.47;;;0.40;;
12232;SDS011;6179;51.748;8.728;2022-07-01T17:20:26;0.50;;;0.40;;
12232;SDS011;6179;51.748;8.728;2022-07-01T17:26:28;0.53;;;0.53;;
12232;SDS011;6179;51.748;8.728;2022-07-01T17:32:39;0.37;;;0.37;;
12232;SDS011;6179;51.748;8.728;2022-07-01T17:45:02;0.60;;;0.60;;
12232;SDS011;6179;51.748;8.728;2022-07-01T17:51:05;0.30;;;0.30;;
12232;SDS011;6179;51.748;8.728;2022-07-01T17:57:06;1.70;;;0.40;;
12232;SDS011;6179;51.748;8.728;2022-07-01T18:03:08;0.83;;;0.50;;
12232;SDS011;6179;51.748;8.728;2022-07-01T18:09:09;3.77;;;0.50;;
12232;SDS011;6179;51.748;8.728;2022-07-01T18:15:12;0.53;;;0.50;;
12232;SDS011;6179;51.748;8.728;2022-07-01T18:21:15;0.83;;;0.40;;
12232;SDS011;6179;51.748;8.728;2022-07-01T18:27:25;1.70;;;0.40;;
12232;SDS011;6179;51.748;8.728;2022-07-01T18:33:36;0.50;;;0.40;;
12232;SDS011;6179;51.748;8.728;2022-07-01T18:39:52;0.40;;;0.40;;
12232;SDS011;6179;51.748;8.728;2022-07-01T18:45:53;0.40;;;0.40;;
12232;SDS011;6179;51.748;8.728;2022-07-01T18:51:55;2.60;;;0.40;;
12232;SDS011;6179;51.748;8.728;2022-07-01T18:57:56;0.63;;;0.40;;
12232;SDS011;6179;51.748;8.728;2022-07-01T19:03:57;0.77;;;0.43;;
12232;SDS011;6179;51.748;8.728;2022-07-01T19:09:58;1.10;;;0.50;;
12232;SDS011;6179;51.748;8.728;2022-07-01T19:15:59;0.77;;;0.77;;
12232;SDS011;6179;51.748;8.728;2022-07-01T19:22:00;0.40;;;0.40;;
12232;SDS011;6179;51.748;8.728;2022-07-01T19:28:01;2.00;;;0.40;;
12232;SDS011;6179;51.748;8.728;2022-07-01T19:34:02;0.73;;;0.50;;
12232;SDS011;6179;51.748;8.728;2022-07-01T19:40:03;2.00;;;0.40;;
12232;SDS011;6179;51.748;8.728;2022-07-01T19:46:04;0.47;;;0.40;;
12232;SDS011;6179;51.748;8.728;2022-07-01T19:52:05;0.70;;;0.40;;
12232;SDS011;6179;51.748;8.728;2022-07-01T19:58:07;0.47;;;0.43;;
12232;SDS011;6179;51.748;8.728;2022-07-01T20:04:08;0.40;;;0.40;;
12232;SDS011;6179;51.748;8.728;2022-07-01T20:10:09;4.10;;;0.70;;
12232;SDS011;6179;51.748;8.728;2022-07-01T20:16:10;0.40;;;0.40;;
12232;SDS011;6179;51.748;8.728;2022-07-01T20:22:11;2.00;;;0.50;;
12232;SDS011;6179;51.748;8.728;2022-07-01T20:28:11;0.30;;;0.30;;
12232;SDS011;6179;51.748;8.728;2022-07-01T20:34:15;0.70;;;0.60;;
12232;SDS011;6179;51.748;8.728;2022-07-01T20:40:16;1.17;;;0.50;;
12232;SDS011;6179;51.748;8.728;2022-07-01T20:46:18;6.33;;;0.50;;
12232;SDS011;6179;51.748;8.728;2022-07-01T20:52:19;5.40;;;0.77;;
12232;SDS011;6179;51.748;8.728;2022-07-01T20:58:20;0.90;;;0.60;;
12232;SDS011;6179;51.748;8.728;2022-07-01T21:04:22;0.70;;;0.70;;
12232;SDS011;6179;51.748;8.728;2022-07-01T21:10:23;0.50;;;0.40;;
12232;SDS011;6179;51.748;8.728;2022-07-01T21:16:24;4.97;;;0.50;;
12232;SDS011;6179;51.748;8.728;2022-07-01T21:22:26;0.93;;;0.50;;
12232;SDS011;6179;51.748;8.728;2022-07-01T21:28:27;0.40;;;0.40;;
12232;SDS011;6179;51.748;8.728;2022-07-01T21:34:28;0.83;;;0.50;;
12232;SDS011;6179;51.748;8.728;2022-07-01T21:40:29;0.60;;;0.53;;
12232;SDS011;6179;51.748;8.728;2022-07-01T21:46:34;0.60;;;0.60;;
12232;SDS011;6179;51.748;8.728;2022-07-01T21:52:38;1.10;;;0.63;;
12232;SDS011;6179;51.748;8.728;2022-07-01T21:58:42;0.53;;;0.50;;
12232;SDS011;6179;51.748;8.728;2022-07-01T22:04:43;1.07;;;0.60;;
12232;SDS011;6179;51.748;8.728;2022-07-01T22:10:44;0.70;;;0.57;;
12232;SDS011;6179;51.748;8.728;2022-07-01T22:16:50;2.30;;;1.17;;
12232;SDS011;6179;51.748;8.728;2022-07-01T22:22:57;1.47;;;1.00;;
12232;SDS011;6179;51.748;8.728;2022-07-01T22:29:00;1.80;;;1.00;;
12232;SDS011;6179;51.748;8.728;2022-07-01T22:35:01;1.07;;;0.60;;
12232;SDS011;6179;51.748;8.728;2022-07-01T22:41:03;1.23;;;0.50;;
12232;SDS011;6179;51.748;8.728;2022-07-01T22:47:05;0.80;;;0.63;;
12232;SDS011;6179;51.748;8.728;2022-07-01T22:53:25;0.90;;;0.50;;
12232;SDS011;6179;51.748;8.728;2022-07-01T22:59:33;2.03;;;0.63;;
12232;SDS011;6179;51.748;8.728;2022-07-01T23:05:34;3.70;;;0.67;;
12232;SDS011;6179;51.748;8.728;2022-07-01T23:11:39;1.07;;;0.60;;
12232;SDS011;6179;51.748;8.728;2022-07-01T23:17:48;1.30;;;0.63;;
12232;SDS011;6179;51.748;8.728;2022-07-01T23:23:51;0.73;;;0.73;;
12232;SDS011;6179;51.748;8.728;2022-07-01T23:29:57;3.60;;;0.90;;
12232;SDS011;6179;51.748;8.728;2022-07-01T23:35:59;0.87;;;0.70;;
12232;SDS011;6179;51.748;8.728;2022-07-01T23:42:00;1.63;;;1.00;;
12232;SDS011;6179;51.748;8.728;2022-07-01T23:48:01;1.07;;;0.70;;
12232;SDS011;6179;51.748;8.728;2022-07-01T23:54:02;0.83;;;0.70;;
